Time;durP1;ratioP1;P1;durP2;ratioP2;P2;SDS_P1;SDS_P2;PMS_P1;PMS_P2;Temp;Humidity;BMP_temperature;BMP_pressure;BME280_temperature;BME280_humidity;BME280_pressure;Samples;Min_cycle;Max_cycle;Signal;HPM_P1;HPM_P2
2022/02/20 12:19:40;;;;;;;53.08;9.93;;;9.40;99.90;;;;;;5145717;27;20580;-75
2022/02/20 12:22:24;;;;;;;59.08;10.80;;;9.40;99.90;;;;;;5101678;28;20043;-77
2022/02/20 12:24:56;;;;;;;52.63;9.55;;;9.40;99.90;;;;;;5135086;27;20165;-77
2022/02/20 12:27:38;;;;;;;57.28;12.32;;;9.50;99.90;;;;;;5126272;27;20518;-78
2022/02/20 12:30:11;;;;;;;58.47;11.27;;;9.60;99.90;;;;;;5096633;28;20574;-79
2022/02/20 12:32:42;;;;;;;56.45;10.75;;;9.50;99.90;;;;;;5127421;27;20074;-78
2022/02/20 12:35:15;;;;;;;52.80;9.35;;;9.60;99.90;;;;;;5083277;28;20028;-79
2022/02/20 12:37:48;;;;;;;47.47;10.43;;;9.60;99.90;;;;;;5078898;28;20036;-82
2022/02/20 12:40:20;;;;;;;53.13;9.60;;;9.60;99.90;;;;;;5110688;27;20584;-81
2022/02/20 12:42:49;;;;;;;47.53;9.15;;;9.60;99.90;;;;;;5125872;27;20089;-83
2022/02/20 12:45:22;;;;;;;46.53;9.77;;;9.60;99.90;;;;;;5115794;27;20479;-81
2022/02/20 12:47:49;;;;;;;43.28;8.32;;;9.60;99.90;;;;;;5093587;28;20371;-82
2022/02/20 12:50:20;;;;;;;41.47;8.65;;;9.60;99.90;;;;;;5110923;27;20032;-81
2022/02/20 12:52:45;;;;;;;;;;;9.60;99.90;;;;;;5099367;28;20090;-81
2022/02/20 12:55:17;;;;;;;47.88;8.85;;;9.60;99.90;;;;;;5094796;28;20329;-76
2022/02/20 12:57:44;;;;;;;40.50;8.65;;;9.60;99.90;;;;;;5094316;28;20135;-76
2022/02/20 13:00:19;;;;;;;38.35;7.70;;;9.60;99.90;;;;;;5091369;28;20035;-75
2022/02/20 13:02:47;;;;;;;45.20;8.07;;;9.70;99.90;;;;;;5099652;28;20039;-75
2022/02/20 13:05:32;;;;;;;40.08;8.77;;;9.70;99.90;;;;;;5085082;28;20406;-77
2022/02/20 13:08:01;;;;;;;47.65;9.52;;;9.70;99.90;;;;;;5073379;28;20048;-78
2022/02/20 13:10:39;;;;;;;46.13;8.82;;;9.70;99.90;;;;;;5092650;28;20048;-78
2022/02/20 13:13:27;;;;;;;40.95;8.43;;;9.70;99.90;;;;;;5070205;28;20082;-78
2022/02/20 13:15:59;;;;;;;36.00;8.38;;;9.70;99.90;;;;;;5122732;27;20049;-76
2022/02/20 13:18:30;;;;;;;46.30;9.85;;;9.70;99.90;;;;;;5085640;28;20059;-77
2022/02/20 13:21:03;;;;;;;46.03;9.18;;;9.70;99.90;;;;;;5103389;28;20058;-79
2022/02/20 13:23:36;;;;;;;48.30;9.98;;;9.70;99.90;;;;;;5122251;27;20119;-78
2022/02/20 13:26:11;;;;;;;47.60;9.20;;;9.60;99.90;;;;;;5087292;28;20049;-78
2022/02/20 13:28:41;;;;;;;42.15;8.20;;;9.70;99.90;;;;;;5119681;27;20048;-78
2022/02/20 13:31:10;;;;;;;31.67;7.15;;;9.60;99.90;;;;;;5085620;28;20037;-78
2022/02/20 13:33:40;;;;;;;42.72;9.13;;;9.60;99.90;;;;;;5106757;27;20047;-78
2022/02/20 13:36:08;;;;;;;42.50;7.47;;;9.70;99.90;;;;;;5116818;27;20059;-78
2022/02/20 13:38:39;;;;;;;42.75;8.38;;;9.60;99.90;;;;;;5072534;28;20047;-80
2022/02/20 13:41:11;;;;;;;40.60;8.60;;;9.70;99.90;;;;;;5072885;28;20139;-78
2022/02/20 13:43:46;;;;;;;41.45;9.20;;;9.60;99.90;;;;;;5082337;28;20036;-77
2022/02/20 13:46:13;;;;;;;43.55;8.93;;;9.60;99.90;;;;;;5073093;28;20040;-78
2022/02/20 13:48:42;;;;;;;40.67;8.68;;;9.60;99.90;;;;;;5065574;28;20438;-80
2022/02/20 13:51:20;;;;;;;42.00;9.45;;;9.60;99.90;;;;;;5072929;28;20070;-77
2022/02/20 13:53:50;;;;;;;32.67;8.00;;;9.60;99.90;;;;;;5068340;28;20086;-78
2022/02/20 13:56:22;;;;;;;44.45;9.95;;;9.60;99.90;;;;;;5061857;28;20108;-77
2022/02/20 13:58:56;;;;;;;41.72;8.75;;;9.60;99.90;;;;;;5056530;28;20080;-78
2022/02/20 14:01:23;;;;;;;38.17;8.05;;;9.60;99.90;;;;;;5071851;28;20590;-79
2022/02/20 14:03:49;;;;;;;41.97;8.98;;;9.60;99.90;;;;;;5066646;28;20044;-77
2022/02/20 14:06:16;;;;;;;38.35;7.75;;;9.60;99.90;;;;;;5102704;28;20127;-80
2022/02/20 14:08:41;;;;;;;33.03;7.25;;;9.60;99.90;;;;;;5044550;28;20052;-78
2022/02/20 14:11:12;;;;;;;31.75;6.45;;;9.60;99.90;;;;;;5080454;28;20045;-76
2022/02/20 14:13:42;;;;;;;41.88;8.02;;;9.60;99.90;;;;;;5055583;28;20605;-77
2022/02/20 14:16:10;;;;;;;36.22;7.82;;;9.60;99.90;;;;;;5101837;27;20114;-80
2022/02/20 14:18:44;;;;;;;38.67;9.25;;;9.60;99.90;;;;;;5044080;28;20052;-78
2022/02/20 14:21:15;;;;;;;40.65;9.32;;;9.60;99.90;;;;;;5047764;28;20522;-79
2022/02/20 14:23:46;;;;;;;40.47;8.20;;;9.60;99.90;;;;;;5104817;27;20045;-79
2022/02/20 14:26:13;;;;;;;35.70;7.18;;;9.60;99.90;;;;;;5063115;28;20052;-76
2022/02/20 14:28:53;;;;;;;44.88;9.30;;;9.60;99.90;;;;;;5082651;28;20097;-80
2022/02/20 14:31:22;;;;;;;37.30;7.57;;;9.60;99.90;;;;;;5062784;28;20128;-78
2022/02/20 14:33:50;;;;;;;42.97;8.18;;;9.60;99.90;;;;;;5061626;28;20060;-79
2022/02/20 14:36:23;;;;;;;42.75;8.27;;;9.60;99.90;;;;;;5080204;28;20067;-79
2022/02/20 14:38:50;;;;;;;29.15;7.47;;;9.60;99.90;;;;;;5109584;27;20487;-76
2022/02/20 14:41:16;;;;;;;31.25;7.07;;;9.60;99.90;;;;;;5082732;28;20051;-81
2022/02/20 14:43:44;;;;;;;36.13;7.55;;;9.60;99.90;;;;;;5055836;28;20041;-77
2022/02/20 14:46:11;;;;;;;34.58;8.77;;;9.60;99.90;;;;;;5108175;27;20525;-79
2022/02/20 14:48:37;;;;;;;31.08;6.78;;;9.60;99.90;;;;;;5053993;28;20036;-78
2022/02/20 14:51:06;;;;;;;31.92;7.57;;;9.60;99.90;;;;;;5093890;28;20052;-79
2022/02/20 14:53:32;;;;;;;36.00;7.13;;;9.60;99.90;;;;;;5048595;28;20055;-78
2022/02/20 14:56:00;;;;;;;33.63;8.00;;;9.60;99.90;;;;;;5044907;28;20133;-79
2022/02/20 14:58:25;;;;;;;28.77;6.95;;;9.60;99.90;;;;;;5047119;28;20051;-78
2022/02/20 15:00:51;;;;;;;31.75;7.38;;;9.70;99.90;;;;;;5059472;28;20044;-78
2022/02/20 15:03:17;;;;;;;30.55;6.88;;;9.60;99.90;;;;;;5055341;28;20668;-80
2022/02/20 15:05:43;;;;;;;31.88;6.88;;;9.60;99.90;;;;;;5058176;28;20622;-79
2022/02/20 15:08:09;;;;;;;30.73;7.20;;;9.70;99.90;;;;;;5056429;28;20119;-79
2022/02/20 15:10:35;;;;;;;26.05;5.95;;;9.70;99.90;;;;;;5056162;28;20115;-78
2022/02/20 15:13:01;;;;;;;29.23;6.90;;;9.60;99.90;;;;;;5051034;28;20361;-78
2022/02/20 15:15:27;;;;;;;32.53;6.40;;;9.60;99.90;;;;;;5055616;28;20051;-77
2022/02/20 15:17:56;;;;;;;31.38;5.97;;;9.70;99.90;;;;;;5038299;28;20060;-80
2022/02/20 15:20:21;;;;;;;26.65;8.57;;;9.70;99.90;;;;;;5041944;28;20450;-78
2022/02/20 15:22:51;;;;;;;23.13;5.57;;;9.60;99.90;;;;;;5096927;27;20060;-78
2022/02/20 15:25:17;;;;;;;26.88;5.97;;;9.70;99.90;;;;;;5042813;28;20047;-80
2022/02/20 15:27:44;;;;;;;27.45;5.95;;;9.70;99.90;;;;;;5048976;28;20068;-78
2022/02/20 15:30:11;;;;;;;25.98;6.15;;;9.70;99.90;;;;;;5067046;28;20040;-77
2022/02/20 15:32:38;;;;;;;28.77;5.85;;;9.70;99.90;;;;;;5039862;28;20071;-79
2022/02/20 15:35:05;;;;;;;28.00;5.70;;;9.60;99.90;;;;;;5053975;28;20111;-79
2022/02/20 15:37:31;;;;;;;25.30;6.00;;;9.70;99.90;;;;;;5099927;27;20057;-78
2022/02/20 15:39:59;;;;;;;25.50;6.40;;;9.70;99.90;;;;;;5056213;28;20048;-79
2022/02/20 15:42:25;;;;;;;26.77;6.63;;;9.70;99.90;;;;;;5064255;28;20051;-78
2022/02/20 15:44:53;;;;;;;26.98;6.13;;;9.70;99.90;;;;;;5062820;28;20407;-79
2022/02/20 15:47:19;;;;;;;24.35;5.82;;;9.70;99.90;;;;;;5064013;28;20468;-78
2022/02/20 15:49:45;;;;;;;29.90;6.63;;;9.70;99.90;;;;;;5102018;27;20048;-78
2022/02/20 15:52:11;;;;;;;29.52;6.10;;;9.70;99.90;;;;;;5060168;28;20055;-79
2022/02/20 15:54:36;;;;;;;29.60;6.38;;;9.70;99.90;;;;;;5090929;28;20048;-79
2022/02/20 15:57:03;;;;;;;22.05;5.07;;;9.70;99.90;;;;;;5064957;28;20959;-78
2022/02/20 15:59:32;;;;;;;30.40;5.75;;;9.70;99.90;;;;;;5064553;28;20044;-80
2022/02/20 16:01:58;;;;;;;30.42;7.80;;;9.70;99.90;;;;;;5068987;28;20128;-77
2022/02/20 16:04:24;;;;;;;26.67;6.25;;;9.80;99.90;;;;;;5101068;27;20119;-78
2022/02/20 16:06:55;;;;;;;27.58;7.45;;;9.80;99.90;;;;;;5068512;28;20043;-79
2022/02/20 16:09:21;;;;;;;37.40;7.03;;;9.80;99.90;;;;;;5056188;28;20298;-77
2022/02/20 16:11:47;;;;;;;36.20;6.88;;;9.80;99.90;;;;;;5096846;28;20044;-77
2022/02/20 16:14:14;;;;;;;38.83;9.02;;;9.80;99.90;;;;;;5054230;28;20048;-78
2022/02/20 16:16:39;;;;;;;30.52;7.85;;;9.80;99.90;;;;;;5104818;28;20040;-79
2022/02/20 16:19:05;;;;;;;30.85;7.47;;;9.80;99.90;;;;;;5096210;28;20224;-78
2022/02/20 16:21:31;;;;;;;38.22;7.50;;;9.80;99.90;;;;;;5090393;28;20054;-79
2022/02/20 16:24:03;;;;;;;36.22;9.05;;;9.80;99.90;;;;;;5056002;28;20047;-78
2022/02/20 16:26:33;;;;;;;29.10;7.05;;;9.80;99.90;;;;;;5053120;28;20043;-77
2022/02/20 16:29:00;;;;;;;43.70;8.20;;;9.80;99.90;;;;;;5063553;28;20071;-79
2022/02/20 16:31:29;;;;;;;33.67;7.82;;;9.80;99.90;;;;;;5052701;28;20671;-79
2022/02/20 16:34:01;;;;;;;41.67;8.37;;;9.80;99.90;;;;;;5076118;28;20338;-78
2022/02/20 16:36:32;;;;;;;36.25;8.07;;;9.80;99.90;;;;;;5091383;28;20055;-78
2022/02/20 16:38:59;;;;;;;38.08;7.57;;;9.80;99.90;;;;;;5103466;28;20070;-79
2022/02/20 16:41:25;;;;;;;24.25;6.60;;;9.80;99.90;;;;;;5102198;28;20402;-80
2022/02/20 16:43:52;;;;;;;32.75;7.18;;;9.90;99.90;;;;;;5096506;28;20275;-79
2022/02/20 16:46:24;;;;;;;28.20;6.57;;;9.90;99.90;;;;;;5097936;28;20060;-77
2022/02/20 16:48:55;;;;;;;31.23;6.32;;;9.90;99.90;;;;;;5048340;28;20044;-77
2022/02/20 16:51:22;;;;;;;28.23;6.60;;;9.80;99.90;;;;;;5103986;28;20101;-80
2022/02/20 16:53:51;;;;;;;29.42;6.47;;;9.90;99.90;;;;;;5058015;28;20658;-77
2022/02/20 16:56:17;;;;;;;25.90;6.47;;;9.90;99.90;;;;;;5100464;28;20060;-79
2022/02/20 16:58:44;;;;;;;28.33;6.53;;;9.90;99.90;;;;;;5038581;28;20041;-78
2022/02/20 17:01:10;;;;;;;24.10;5.10;;;9.90;99.90;;;;;;5095877;28;20335;-79
2022/02/20 17:03:36;;;;;;;22.88;6.18;;;9.90;99.90;;;;;;5046934;28;20080;-79
2022/02/20 17:06:01;;;;;;;22.92;5.82;;;9.90;99.90;;;;;;5067212;28;20450;-77
2022/02/20 17:08:28;;;;;;;23.27;6.57;;;9.90;99.90;;;;;;5065199;28;20278;-79
2022/02/20 17:10:54;;;;;;;24.55;5.68;;;9.90;99.90;;;;;;5050614;28;20040;-78
2022/02/20 17:13:19;;;;;;;19.45;5.07;;;9.90;99.90;;;;;;5085996;28;20131;-79
2022/02/20 17:15:46;;;;;;;16.50;4.40;;;9.90;99.90;;;;;;5046656;28;20044;-77
2022/02/20 17:18:12;;;;;;;22.05;5.22;;;9.90;99.90;;;;;;5041783;28;20534;-76
2022/02/20 17:20:39;;;;;;;15.73;4.18;;;9.90;99.90;;;;;;5040056;28;20140;-80
2022/02/20 17:23:05;;;;;;;16.23;4.25;;;9.90;99.90;;;;;;5109757;27;20047;-76
2022/02/20 17:25:34;;;;;;;21.02;5.15;;;9.90;99.90;;;;;;5060272;28;20041;-79
2022/02/20 17:28:00;;;;;;;17.63;4.85;;;9.90;99.90;;;;;;5073637;28;20526;-78
2022/02/20 17:30:25;;;;;;;18.45;4.78;;;9.90;99.90;;;;;;5089238;28;20076;-77
2022/02/20 17:32:52;;;;;;;20.20;4.70;;;9.90;99.90;;;;;;5053248;28;20043;-78
2022/02/20 17:35:20;;;;;;;11.70;4.03;;;9.90;99.90;;;;;;5083796;28;20534;-80
2022/02/20 17:37:47;;;;;;;15.18;3.28;;;9.90;99.90;;;;;;5071359;28;20047;-77
2022/02/20 17:40:18;;;;;;;13.20;3.53;;;9.90;99.90;;;;;;5057150;28;20435;-77
2022/02/20 17:42:45;;;;;;;15.20;3.35;;;10.00;99.90;;;;;;5106010;27;20133;-78
2022/02/20 17:45:22;;;;;;;17.95;4.45;;;10.00;99.90;;;;;;5055184;28;20105;-76
2022/02/20 17:47:49;;;;;;;14.98;4.22;;;10.00;99.90;;;;;;5063583;28;20059;-76
2022/02/20 17:50:18;;;;;;;13.75;3.50;;;10.00;99.90;;;;;;5064188;28;20044;-75
2022/02/20 17:52:45;;;;;;;13.95;3.42;;;10.00;99.90;;;;;;5056818;28;20044;-79
2022/02/20 17:55:11;;;;;;;12.82;3.80;;;10.00;99.90;;;;;;5057654;28;20048;-79
2022/02/20 17:57:37;;;;;;;10.60;3.70;;;10.00;99.90;;;;;;5086514;28;20044;-77
2022/02/20 18:00:04;;;;;;;11.63;3.40;;;10.00;99.90;;;;;;5099015;28;20043;-78
2022/02/20 18:02:30;;;;;;;10.38;3.13;;;9.90;99.90;;;;;;5109442;27;20048;-78
2022/02/20 18:04:56;;;;;;;13.23;3.75;;;10.00;99.90;;;;;;5094949;27;20406;-79
2022/02/20 18:07:22;;;;;;;10.65;3.20;;;10.00;99.90;;;;;;5061036;28;20036;-79
2022/02/20 18:09:48;;;;;;;13.63;3.20;;;10.00;99.90;;;;;;5048413;28;20248;-77
2022/02/20 18:12:14;;;;;;;6.88;2.75;;;10.00;99.90;;;;;;5106723;27;20157;-78
2022/02/20 18:14:40;;;;;;;10.68;3.22;;;10.00;99.90;;;;;;5072339;28;20052;-74
2022/02/20 18:17:05;;;;;;;9.82;2.97;;;10.00;99.90;;;;;;5090210;28;20110;-80
2022/02/20 18:19:33;;;;;;;13.20;3.35;;;10.00;99.90;;;;;;5110420;27;20055;-77
2022/02/20 18:22:02;;;;;;;9.93;2.78;;;10.00;99.90;;;;;;5076696;28;20134;-76
2022/02/20 18:24:33;;;;;;;9.73;2.42;;;10.00;99.90;;;;;;5058194;28;20449;-76
2022/02/20 18:27:00;;;;;;;12.55;3.22;;;10.10;99.90;;;;;;5057403;28;20048;-77
2022/02/20 18:29:26;;;;;;;9.38;3.10;;;10.00;99.90;;;;;;5053218;28;20052;-77
2022/02/20 18:31:52;;;;;;;10.07;3.05;;;10.10;99.90;;;;;;5060930;28;20490;-76
2022/02/20 18:34:19;;;;;;;9.88;3.30;;;10.10;99.90;;;;;;5056827;28;20245;-77
2022/02/20 18:36:47;;;;;;;9.70;3.22;;;10.10;99.90;;;;;;5065095;28;20040;-78
2022/02/20 18:39:16;;;;;;;9.30;3.00;;;10.10;99.90;;;;;;5049999;28;20036;-79
2022/02/20 18:41:47;;;;;;;10.32;2.50;;;10.10;99.90;;;;;;5068044;28;20037;-77
2022/02/20 18:44:18;;;;;;;9.70;3.58;;;10.00;99.90;;;;;;5044625;28;20044;-77
2022/02/20 18:46:45;;;;;;;12.98;3.03;;;10.00;99.90;;;;;;5081035;28;20048;-78
2022/02/20 18:49:12;;;;;;;8.45;2.33;;;10.00;99.90;;;;;;5057200;28;20056;-77
2022/02/20 18:51:39;;;;;;;11.70;2.55;;;10.00;99.90;;;;;;5103580;27;20104;-79
2022/02/20 18:54:05;;;;;;;9.55;2.60;;;10.00;99.90;;;;;;5069809;28;20281;-78
2022/02/20 18:56:51;;;;;;;8.63;2.75;;;10.00;99.90;;;;;;5051864;28;20062;-78
2022/02/20 18:59:19;;;;;;;9.93;2.42;;;10.00;99.90;;;;;;5076098;28;20032;-77
2022/02/20 19:01:47;;;;;;;10.43;2.25;;;10.00;99.90;;;;;;5066748;28;20396;-79
2022/02/20 19:04:13;;;;;;;9.68;2.17;;;10.10;99.90;;;;;;5101453;27;20486;-77
2022/02/20 19:06:39;;;;;;;13.60;4.07;;;10.10;99.90;;;;;;5068137;28;20044;-77
2022/02/20 19:09:05;;;;;;;9.10;2.50;;;10.10;99.90;;;;;;5036856;28;20037;-77
2022/02/20 19:11:31;;;;;;;11.38;2.60;;;10.10;99.90;;;;;;5056979;28;20094;-77
2022/02/20 19:13:58;;;;;;;7.07;2.30;;;10.10;99.90;;;;;;5051792;28;20079;-77
2022/02/20 19:16:24;;;;;;;10.48;2.58;;;10.10;99.90;;;;;;5062363;28;20570;-77
2022/02/20 19:18:49;;;;;;;10.90;3.42;;;10.10;99.90;;;;;;5054409;28;20056;-76
2022/02/20 19:21:16;;;;;;;8.90;3.33;;;10.10;99.90;;;;;;5101227;28;20079;-75
2022/02/20 19:23:42;;;;;;;8.63;2.55;;;10.10;99.90;;;;;;5107003;27;20127;-77
2022/02/20 19:26:08;;;;;;;14.40;3.85;;;10.10;99.90;;;;;;5039996;28;20468;-77
2022/02/20 19:28:35;;;;;;;12.05;3.33;;;10.10;99.90;;;;;;5069666;28;20048;-79
2022/02/20 19:31:01;;;;;;;10.13;2.80;;;10.10;99.90;;;;;;5066248;28;20037;-76
2022/02/20 19:33:31;;;;;;;9.18;3.55;;;10.10;99.90;;;;;;5085917;28;20453;-76
2022/02/20 19:35:56;;;;;;;10.55;3.67;;;10.10;99.90;;;;;;5049495;28;20495;-75
2022/02/20 19:38:23;;;;;;;10.75;3.40;;;10.20;99.90;;;;;;5046931;28;20189;-77
2022/02/20 19:40:52;;;;;;;11.25;3.70;;;10.20;99.90;;;;;;5071928;28;20040;-77
2022/02/20 19:43:47;;;;;;;11.07;4.07;;;10.20;99.90;;;;;;5055487;28;20040;-77
2022/02/20 19:46:13;;;;;;;9.73;3.80;;;10.20;99.90;;;;;;5022150;28;20487;-77
2022/02/20 19:48:39;;;;;;;12.07;3.00;;;10.20;99.90;;;;;;5105305;27;20055;-78
2022/02/20 19:51:08;;;;;;;12.02;4.05;;;10.20;99.90;;;;;;5052241;28;20949;-78
2022/02/20 19:53:34;;;;;;;8.35;3.40;;;10.20;99.90;;;;;;5056497;28;20059;-78
2022/02/20 19:56:00;;;;;;;9.30;3.70;;;10.20;99.90;;;;;;5106066;27;20499;-77
2022/02/20 19:58:26;;;;;;;10.10;3.25;;;10.10;99.90;;;;;;5058291;28;20788;-76
2022/02/20 20:00:55;;;;;;;9.25;3.10;;;10.20;99.90;;;;;;5054707;28;20044;-76
2022/02/20 20:03:21;;;;;;;7.18;3.22;;;10.20;99.90;;;;;;5065472;28;20390;-79
2022/02/20 20:05:47;;;;;;;8.98;3.15;;;10.10;99.90;;;;;;5065508;28;20597;-77
2022/02/20 20:08:13;;;;;;;7.88;2.40;;;10.10;99.90;;;;;;5058397;28;20040;-75
2022/02/20 20:10:39;;;;;;;11.18;3.40;;;10.20;99.90;;;;;;5104760;27;20059;-76
2022/02/20 20:13:04;;;;;;;9.63;2.78;;;10.10;99.90;;;;;;5095675;27;20113;-74
2022/02/20 20:15:30;;;;;;;7.95;2.63;;;10.10;99.90;;;;;;5057781;28;20044;-75
2022/02/20 20:17:56;;;;;;;5.72;1.88;;;10.10;99.90;;;;;;5054103;28;20502;-76
2022/02/20 20:20:23;;;;;;;8.57;2.60;;;10.20;99.90;;;;;;5073736;28;20455;-78
2022/02/20 20:22:51;;;;;;;7.70;2.97;;;10.10;99.90;;;;;;5054003;28;20040;-76
2022/02/20 20:25:19;;;;;;;9.13;2.28;;;10.10;99.90;;;;;;5097140;28;20040;-76
2022/02/20 20:27:47;;;;;;;9.20;2.35;;;10.10;99.90;;;;;;5105104;28;20058;-75
2022/02/20 20:30:14;;;;;;;6.18;1.92;;;10.10;99.90;;;;;;5052398;28;20052;-75
2022/02/20 20:32:49;;;;;;;6.85;2.15;;;10.10;99.90;;;;;;5102018;28;20083;-76
2022/02/20 20:35:17;;;;;;;6.18;1.88;;;10.10;99.90;;;;;;5048762;28;20048;-79
2022/02/20 20:37:43;;;;;;;4.75;1.55;;;10.10;99.90;;;;;;5104668;28;20129;-75
2022/02/20 20:40:09;;;;;;;8.20;2.17;;;10.10;99.90;;;;;;5062034;28;21288;-76
2022/02/20 20:42:35;;;;;;;5.00;1.50;;;10.10;99.90;;;;;;5071886;28;20593;-75
2022/02/20 20:45:03;;;;;;;6.95;1.90;;;10.10;99.90;;;;;;5091673;28;20448;-78
2022/02/20 20:47:31;;;;;;;10.55;1.98;;;10.10;99.90;;;;;;5045208;28;20505;-77
2022/02/20 20:50:00;;;;;;;11.05;2.38;;;10.10;99.90;;;;;;5085048;28;21286;-78
2022/02/20 20:52:26;;;;;;;10.95;3.03;;;10.10;99.90;;;;;;5091671;28;20048;-77
2022/02/20 20:54:51;;;;;;;7.63;2.58;;;10.00;99.90;;;;;;5050797;28;20070;-77
2022/02/20 20:57:17;;;;;;;7.15;2.22;;;10.10;99.90;;;;;;5095153;28;20044;-76
2022/02/20 20:59:44;;;;;;;4.47;1.98;;;10.10;99.90;;;;;;5042544;28;20051;-76
2022/02/20 21:02:11;;;;;;;9.43;2.00;;;10.10;99.90;;;;;;5057983;28;20052;-75
2022/02/20 21:04:36;;;;;;;8.73;1.92;;;10.10;99.90;;;;;;5073541;28;20044;-76
2022/02/20 21:07:03;;;;;;;8.45;2.33;;;10.10;99.90;;;;;;5038487;28;20036;-77
2022/02/20 21:09:29;;;;;;;5.93;2.28;;;10.10;99.90;;;;;;5082261;28;20131;-77
2022/02/20 21:11:54;;;;;;;5.60;2.17;;;10.10;99.90;;;;;;5038735;28;20131;-77
2022/02/20 21:14:20;;;;;;;6.65;2.15;;;10.10;99.90;;;;;;5074148;28;20569;-76
2022/02/20 21:16:46;;;;;;;8.77;1.98;;;10.10;99.90;;;;;;5041193;28;20032;-78
2022/02/20 21:19:12;;;;;;;8.68;2.30;;;10.10;99.90;;;;;;5044527;28;20048;-75
2022/02/20 21:21:38;;;;;;;7.32;1.77;;;10.10;99.90;;;;;;5086650;28;20040;-74
2022/02/20 21:24:04;;;;;;;5.85;1.90;;;10.10;99.90;;;;;;5044974;28;20517;-77
2022/02/20 21:26:31;;;;;;;7.70;1.88;;;10.10;99.90;;;;;;5049647;28;20058;-77
2022/02/20 21:28:57;;;;;;;9.93;1.92;;;9.60;99.90;;;;;;5053815;28;20047;-73
2022/02/20 21:31:23;;;;;;;7.28;1.55;;;9.10;99.90;;;;;;5073998;28;20409;-74
2022/02/20 21:33:50;;;;;;;8.20;1.45;;;8.70;99.90;;;;;;5077541;28;20054;-74
2022/02/20 21:36:16;;;;;;;10.02;2.25;;;8.40;99.90;;;;;;5041201;28;20142;-78
2022/02/20 21:38:42;;;;;;;7.72;1.52;;;8.30;99.90;;;;;;5042635;28;20089;-74
2022/02/20 21:41:08;;;;;;;8.77;1.15;;;8.10;99.90;;;;;;5054092;28;20041;-74
2022/02/20 21:43:34;;;;;;;9.68;1.85;;;7.90;99.90;;;;;;5070102;28;20041;-75
2022/02/20 21:46:03;;;;;;;8.65;1.70;;;7.80;99.90;;;;;;5042971;28;20070;-74
2022/02/20 21:48:30;;;;;;;10.85;1.80;;;7.70;99.90;;;;;;5088791;28;20122;-75
2022/02/20 21:50:55;;;;;;;8.80;1.73;;;7.60;99.90;;;;;;5092527;28;20372;-75
2022/02/20 21:53:21;;;;;;;3.35;0.90;;;7.50;99.90;;;;;;5053220;28;20062;-77
2022/02/20 21:55:47;;;;;;;10.13;1.50;;;7.50;99.90;;;;;;5070941;28;20381;-75
2022/02/20 21:58:13;;;;;;;7.03;1.25;;;7.40;99.90;;;;;;5072111;28;20040;-77
2022/02/20 22:00:42;;;;;;;7.63;1.63;;;7.30;99.90;;;;;;5036203;28;20040;-77
2022/02/20 22:03:08;;;;;;;8.43;1.45;;;7.20;99.90;;;;;;5043130;28;20035;-77
2022/02/20 22:05:34;;;;;;;13.25;1.60;;;7.20;99.90;;;;;;5071594;28;20143;-78
2022/02/20 22:08:00;;;;;;;7.90;2.42;;;7.20;99.90;;;;;;5108112;27;20052;-73
2022/02/20 22:10:25;;;;;;;9.65;1.60;;;7.10;99.90;;;;;;5054216;28;20040;-77
2022/02/20 22:12:56;;;;;;;9.70;1.63;;;7.10;99.90;;;;;;5074185;28;20052;-78
2022/02/20 22:15:22;;;;;;;;;;;7.10;99.90;;;;;;5045719;28;20052;-77
2022/02/20 22:17:48;;;;;;;11.30;1.95;;;7.00;99.90;;;;;;5070680;28;20458;-75
2022/02/20 22:20:14;;;;;;;11.70;1.95;;;7.00;99.90;;;;;;5056986;28;20131;-74
2022/02/20 22:22:39;;;;;;;15.70;2.05;;;6.90;99.90;;;;;;5094477;28;20039;-73
2022/02/20 22:25:05;;;;;;;10.68;1.77;;;6.90;99.90;;;;;;5066049;28;20040;-77
2022/02/20 22:27:31;;;;;;;9.18;1.80;;;6.90;99.90;;;;;;5107003;27;20502;-77
2022/02/20 22:30:00;;;;;;;6.30;1.30;;;6.90;99.90;;;;;;5071819;28;20047;-75
2022/02/20 22:32:26;;;;;;;10.10;1.60;;;6.90;99.90;;;;;;5069119;28;20439;-75
2022/02/20 22:34:52;;;;;;;8.00;1.20;;;6.90;99.90;;;;;;5042020;28;20494;-77
2022/02/20 22:37:19;;;;;;;7.47;1.90;;;6.80;99.90;;;;;;5056536;28;20055;-74
2022/02/20 22:39:48;;;;;;;11.70;1.58;;;6.80;99.90;;;;;;5072605;28;20078;-77
2022/02/20 22:42:14;;;;;;;9.00;1.38;;;6.80;99.90;;;;;;5072187;28;20185;-76
2022/02/20 22:44:40;;;;;;;10.98;1.40;;;6.80;99.90;;;;;;5038877;28;20048;-75
2022/02/20 22:47:06;;;;;;;13.65;1.70;;;6.80;99.90;;;;;;5108042;27;20093;-75
2022/02/20 22:49:32;;;;;;;9.00;1.60;;;6.80;99.90;;;;;;5089654;28;20495;-75
2022/02/20 22:52:01;;;;;;;9.38;1.73;;;6.80;99.90;;;;;;5084832;28;20078;-74
2022/02/20 22:54:28;;;;;;;16.05;2.28;;;6.80;99.90;;;;;;5069395;28;20048;-78
2022/02/20 22:56:54;;;;;;;10.07;1.47;;;6.80;99.90;;;;;;5078267;28;20418;-74
2022/02/20 22:59:20;;;;;;;8.18;2.00;;;6.80;99.90;;;;;;5047742;28;20040;-73
2022/02/20 23:01:49;;;;;;;6.70;1.75;;;6.80;99.90;;;;;;5107509;27;20466;-75
2022/02/20 23:04:15;;;;;;;9.73;2.53;;;6.80;99.90;;;;;;5066835;28;20127;-75
2022/02/20 23:06:41;;;;;;;12.52;2.33;;;6.70;99.90;;;;;;5036845;28;20132;-72
2022/02/20 23:09:07;;;;;;;8.15;1.65;;;6.80;99.90;;;;;;5049299;28;20090;-75
2022/02/20 23:11:35;;;;;;;10.95;2.30;;;6.80;99.90;;;;;;5038011;28;20127;-75
2022/02/20 23:14:00;;;;;;;11.38;1.73;;;6.80;99.90;;;;;;5105663;27;20083;-76
2022/02/20 23:16:26;;;;;;;10.55;1.73;;;6.80;99.90;;;;;;5065205;28;20106;-75
2022/02/20 23:18:52;;;;;;;10.07;2.23;;;6.80;99.90;;;;;;5067013;28;20101;-72
2022/02/20 23:21:18;;;;;;;14.65;2.20;;;6.80;99.90;;;;;;5064595;28;20273;-75
2022/02/20 23:23:44;;;;;;;13.98;2.13;;;6.80;99.90;;;;;;5053317;28;20064;-73
2022/02/20 23:26:10;;;;;;;14.38;1.95;;;6.80;99.90;;;;;;5081183;28;20510;-75
2022/02/20 23:28:36;;;;;;;17.40;3.05;;;6.80;99.90;;;;;;5082278;28;20059;-76
2022/02/20 23:31:05;;;;;;;18.13;2.90;;;6.80;99.90;;;;;;5109291;27;20098;-77
2022/02/20 23:33:31;;;;;;;17.73;2.92;;;6.70;99.90;;;;;;5068447;28;20043;-72
2022/02/20 23:36:01;;;;;;;15.40;3.60;;;6.80;99.90;;;;;;5066862;28;20074;-75
2022/02/20 23:38:26;;;;;;;6.15;1.35;;;6.70;99.90;;;;;;5084187;28;20040;-75
2022/02/20 23:40:55;;;;;;;11.52;1.15;;;6.60;99.90;;;;;;5080707;28;20048;-73
2022/02/20 23:43:21;;;;;;;8.90;1.07;;;6.30;99.90;;;;;;5120092;27;20449;-73
2022/02/20 23:45:47;;;;;;;4.23;1.20;;;6.10;99.90;;;;;;5093671;28;20047;-74
2022/02/20 23:48:13;;;;;;;5.03;1.20;;;5.90;99.90;;;;;;5049194;28;20036;-74
2022/02/20 23:50:39;;;;;;;10.73;1.43;;;5.90;99.90;;;;;;5068888;28;20491;-73
2022/02/20 23:53:05;;;;;;;12.67;1.70;;;5.80;99.90;;;;;;5076590;28;20080;-75
2022/02/20 23:55:31;;;;;;;8.87;1.60;;;5.80;99.90;;;;;;5059713;28;20043;-75
2022/02/20 23:57:59;;;;;;;10.83;2.10;;;5.80;99.90;;;;;;5078809;28;20079;-73
